ウランバートル の空港の天気 - METARとTAF

チンギスハーン国際空港 ( ZMUB / ULN ) - モンゴル ウランバートル
飛行場実況気象(Metar)
観測時間06/25 16:30 ULAT (06/25 08:30 UTC)
風向・風速西南西 4m/s
視程10km以上
天気現象
少しの雲 雲底高度 910m
全天の4割程度の雲 雲底高度 1010m
気温28℃
湿度20%
気圧1010hPa
METARZMUB 250830Z 24004MPS 9999 FEW030CB SCT033 28/03 Q1010 NOSIG RMK QFE650.6 19 MOP
過去の天気等 Google飛行場航空写真 Wunderground天気予報

過去48時間のMETAR

飛行場予報(TAF)
データがありません